Longisland, North Carolina
Current Conditions -  °F | °C
As of 7:35 PM on Sunday 21 Dec 2014 (Local Time) from KSVH Reporting Station
Overcast Overcast  
Wind Chill: 44°   Ceiling: 4100
Heat Index: 44°   Visibility: 10mi
Dew Point: 37°   Wind: 3mph
Humidity: 76%   Direction: 40°NE
Pressure: 30.2"   Gusts: NA
Location:  35.6752°N, 81.0375°W
Report Text: KSVH 220035Z AUTO 04003KT 10SM OVC041 07/03 A3020 RMK AO2 T00650025
Loading
Personal Weather Stations






























Interactive Weather Map New forecast layout! Learn more

10-Day Weather Forecast

Advertisements
Track Severe Weather on mobile